Time;durP1;ratioP1;P1;durP2;ratioP2;P2;SDS_P1;SDS_P2;PMS_P1;PMS_P2;Temp;Humidity;BMP_temperature;BMP_pressure;BME280_temperature;BME280_humidity;BME280_pressure;Samples;Min_cycle;Max_cycle;Signal;HPM_P1;HPM_P2
2021/05/08 00:01:45;;;;;;;0.97;0.87;;;;;;;-0.07;97.71;95958.00;5061848;28;20266;-67
2021/05/08 00:04:12;;;;;;;1.03;1.03;;;;;;;-0.07;97.77;95942.44;5049210;28;20223;-67
2021/05/08 00:06:39;;;;;;;1.00;1.00;;;;;;;-0.04;97.93;95952.59;5062003;28;20281;-67
2021/05/08 00:09:07;;;;;;;1.00;1.00;;;;;;;-0.03;97.73;95949.03;5045937;28;20324;-66
2021/05/08 00:11:35;;;;;;;1.50;1.30;;;;;;;-0.01;98.27;95957.53;5076942;28;20643;-67
2021/05/08 00:14:04;;;;;;;2.47;2.30;;;;;;;-0.04;98.33;95950.81;5062624;28;20774;-66
2021/05/08 00:16:30;;;;;;;1.23;1.10;;;;;;;-0.09;97.55;95957.25;5059787;28;20241;-67
2021/05/08 00:18:58;;;;;;;1.50;1.40;;;;;;;-0.05;97.83;95956.13;5050829;28;20226;-67
2021/05/08 00:21:25;;;;;;;1.20;1.10;;;;;;;-0.06;98.18;95951.88;5060347;28;20248;-67
2021/05/08 00:23:52;;;;;;;1.37;1.13;;;;;;;-0.06;98.19;95942.31;5061641;28;20311;-67
2021/05/08 00:26:19;;;;;;;2.90;1.57;;;;;;;0.04;98.89;95947.66;5058229;28;20695;-67
2021/05/08 00:28:46;;;;;;;1.50;1.40;;;;;;;0.12;98.25;95941.91;5063817;28;20282;-66
2021/05/08 00:31:13;;;;;;;2.50;2.13;;;;;;;0.12;98.70;95945.34;5063381;28;20272;-66
2021/05/08 00:33:40;;;;;;;1.60;1.50;;;;;;;0.08;98.11;95938.69;5059998;28;20683;-67
2021/05/08 00:36:07;;;;;;;1.10;1.10;;;;;;;0.07;98.21;95939.66;5062474;28;20381;-67
2021/05/08 00:38:34;;;;;;;2.00;1.80;;;;;;;0.03;98.62;95933.03;5064992;28;20218;-67
2021/05/08 00:41:01;;;;;;;1.57;1.47;;;;;;;0.06;99.01;95935.41;5063278;28;20698;-67
2021/05/08 00:43:28;;;;;;;1.23;1.20;;;;;;;0.07;99.24;95944.84;5070829;28;20244;-67
2021/05/08 00:45:56;;;;;;;1.30;1.20;;;;;;;0.10;99.28;95936.84;5056916;28;20241;-67
2021/05/08 00:48:27;;;;;;;1.93;1.83;;;;;;;0.14;99.49;95938.25;5065834;28;20222;-66
2021/05/08 00:50:55;;;;;;;1.77;1.67;;;;;;;0.15;99.46;95934.72;5056529;28;20634;-66
2021/05/08 00:53:22;;;;;;;2.07;1.97;;;;;;;0.16;99.22;95938.16;5055205;28;20241;-66
2021/05/08 00:55:50;;;;;;;2.10;1.97;;;;;;;0.12;99.09;95937.56;5059714;28;20296;-67
2021/05/08 00:58:17;;;;;;;2.17;2.07;;;;;;;0.09;98.52;95932.59;5060507;28;20272;-67
2021/05/08 01:00:47;;;;;;;1.90;1.80;;;;;;;0.16;99.23;95936.38;5062144;28;20245;-67
2021/05/08 01:03:14;;;;;;;2.13;2.00;;;;;;;0.22;98.94;95935.94;5062850;28;20759;-66
2021/05/08 01:05:42;;;;;;;2.97;2.57;;;;;;;0.19;98.56;95928.38;5063634;28;20237;-67
2021/05/08 01:08:13;;;;;;;1.37;1.27;;;;;;;0.04;98.43;95931.28;5060593;28;20613;-67
2021/05/08 01:10:41;;;;;;;1.67;1.57;;;;;;;-0.01;97.74;95929.81;5060388;28;20687;-66
2021/05/08 01:13:08;;;;;;;2.07;1.97;;;;;;;-0.11;96.94;95928.03;5072840;28;20301;-66
2021/05/08 01:15:36;;;;;;;2.60;2.40;;;;;;;-0.17;97.07;95941.47;5063604;28;20751;-66
2021/05/08 01:18:05;;;;;;;3.13;2.13;;;;;;;-0.17;97.36;95938.88;5054344;28;20222;-67
2021/05/08 01:20:32;;;;;;;2.63;2.47;;;;;;;-0.11;97.65;95939.22;5046548;28;20359;-66
2021/05/08 01:23:03;;;;;;;1.70;1.60;;;;;;;-0.07;98.26;95934.66;5077448;28;20232;-65
2021/05/08 01:25:30;;;;;;;4.80;3.00;;;;;;;-0.06;98.75;95928.53;5072879;28;20296;-67
2021/05/08 01:28:00;;;;;;;2.70;2.23;;;;;;;-0.01;99.03;95931.59;5055374;28;20227;-66
2021/05/08 01:30:38;;;;;;;1.97;1.87;;;;;;;-0.08;98.34;95933.00;5065836;28;20217;-67
2021/05/08 01:33:11;;;;;;;2.60;1.60;;;;;;;-0.23;97.80;95942.72;5065065;28;20321;-67
2021/05/08 01:35:38;;;;;;;2.63;2.43;;;;;;;-0.30;98.04;95939.72;5047476;28;20224;-67
2021/05/08 01:38:06;;;;;;;1.53;1.33;;;;;;;-0.38;98.20;95936.88;5061397;28;20785;-67
2021/05/08 01:40:36;;;;;;;2.77;2.67;;;;;;;-0.39;97.73;95943.00;5060074;28;20503;-65
2021/05/08 01:43:05;;;;;;;1.27;1.17;;;;;;;-0.44;97.11;95939.09;5072389;28;20243;-66
2021/05/08 01:45:32;;;;;;;2.03;1.93;;;;;;;-0.51;97.39;95941.28;5056543;28;20232;-66
2021/05/08 01:48:05;;;;;;;1.57;1.47;;;;;;;-0.51;97.70;95943.03;5045485;28;20221;-67
2021/05/08 01:50:33;;;;;;;1.67;1.57;;;;;;;-0.51;98.22;95941.28;5051285;28;20230;-66
2021/05/08 01:52:59;;;;;;;1.63;1.53;;;;;;;-0.53;98.10;95926.78;5059815;28;20224;-65
2021/05/08 01:55:29;;;;;;;2.57;1.77;;;;;;;-0.55;98.38;95926.88;5052287;28;20241;-66
2021/05/08 01:58:01;;;;;;;3.97;2.07;;;;;;;-0.55;98.74;95924.28;5050014;28;20280;-66
2021/05/08 02:00:33;;;;;;;2.53;2.43;;;;;;;-0.52;99.41;95934.44;5048658;28;20286;-67
2021/05/08 02:03:01;;;;;;;3.67;2.30;;;;;;;-0.51;99.36;95928.31;5066544;28;20237;-65
2021/05/08 02:05:35;;;;;;;2.93;2.80;;;;;;;-0.49;99.46;95923.03;5055565;28;20212;-66
2021/05/08 02:08:07;;;;;;;3.40;2.90;;;;;;;-0.39;100.00;95919.66;5051611;28;20697;-66
2021/05/08 02:10:39;;;;;;;3.87;3.07;;;;;;;-0.24;100.00;95919.50;5047615;28;20588;-66
2021/05/08 02:13:07;;;;;;;3.13;2.87;;;;;;;-0.23;100.00;95921.16;5061321;28;20699;-67
2021/05/08 02:15:35;;;;;;;2.97;2.77;;;;;;;-0.29;100.00;95920.63;5048719;28;20698;-67
2021/05/08 02:18:05;;;;;;;2.90;2.80;;;;;;;-0.46;99.43;95922.78;5062499;28;20407;-66
2021/05/08 02:20:35;;;;;;;3.77;3.53;;;;;;;-0.47;98.91;95910.78;5060415;28;20479;-66
2021/05/08 02:23:04;;;;;;;3.70;3.50;;;;;;;-0.47;99.71;95916.78;5065456;28;20282;-66
2021/05/08 02:25:33;;;;;;;3.67;3.47;;;;;;;-0.47;99.39;95916.78;5062147;28;20563;-66
2021/05/08 02:28:08;;;;;;;3.80;3.60;;;;;;;-0.46;99.57;95913.25;5063467;28;20227;-66
2021/05/08 02:30:38;;;;;;;2.67;2.33;;;;;;;-0.46;99.95;95915.84;5061533;28;20642;-66
2021/05/08 02:33:06;;;;;;;3.80;2.50;;;;;;;-0.49;99.80;95912.66;5054299;28;20252;-67
2021/05/08 02:35:35;;;;;;;2.20;2.00;;;;;;;-0.60;100.00;95910.84;5062992;28;20268;-67
2021/05/08 02:38:04;;;;;;;2.60;2.40;;;;;;;-0.80;99.64;95916.59;5061813;28;20666;-67
2021/05/08 02:40:35;;;;;;;2.17;2.07;;;;;;;-0.81;98.94;95917.56;5052226;28;20649;-66
2021/05/08 02:43:02;;;;;;;3.57;2.37;;;;;;;-0.92;99.11;95908.75;5050466;28;20231;-66
2021/05/08 02:45:30;;;;;;;2.50;2.37;;;;;;;-0.83;99.19;95903.84;5057194;28;20256;-66
2021/05/08 02:47:57;;;;;;;2.00;1.90;;;;;;;-0.84;99.76;95897.03;5060887;28;20219;-66
2021/05/08 02:50:27;;;;;;;3.63;3.37;;;;;;;-0.82;99.32;95901.19;5046669;28;20215;-65
2021/05/08 02:52:59;;;;;;;3.30;3.07;;;;;;;-0.81;100.00;95894.22;5064958;28;20725;-65
2021/05/08 02:55:28;;;;;;;2.27;2.13;;;;;;;-0.80;100.00;95888.09;5047239;28;20543;-66
2021/05/08 02:58:01;;;;;;;3.63;2.63;;;;;;;-0.95;99.99;95890.84;5062973;28;20699;-66
2021/05/08 03:00:29;;;;;;;2.67;2.47;;;;;;;-1.00;99.88;95894.69;5052525;28;20219;-66
2021/05/08 03:02:57;;;;;;;2.90;2.67;;;;;;;-0.99;100.00;95899.78;5058906;28;20469;-66
2021/05/08 03:05:25;;;;;;;2.03;1.93;;;;;;;-0.96;100.00;95893.53;5055610;28;20235;-67
2021/05/08 03:07:56;;;;;;;2.33;2.23;;;;;;;-0.93;100.00;95894.13;5064513;28;20516;-66
2021/05/08 03:10:24;;;;;;;2.90;2.63;;;;;;;-0.90;100.00;95899.13;5061574;28;20308;-66
2021/05/08 03:12:51;;;;;;;4.07;2.73;;;;;;;-0.87;100.00;95887.72;5060205;28;20811;-65
2021/05/08 03:15:18;;;;;;;2.10;2.00;;;;;;;-0.86;100.00;95890.19;5054750;28;20664;-66
2021/05/08 03:17:46;;;;;;;4.50;4.20;;;;;;;-0.83;100.00;95888.31;5062578;28;20996;-65
2021/05/08 03:20:14;;;;;;;3.33;3.07;;;;;;;-0.83;100.00;95880.53;5059461;28;20603;-66
2021/05/08 03:22:43;;;;;;;3.33;3.13;;;;;;;-0.83;100.00;95877.94;5061685;28;20557;-66
2021/05/08 03:25:11;;;;;;;2.70;2.50;;;;;;;-0.83;100.00;95883.94;5077000;28;20610;-66
2021/05/08 03:27:38;;;;;;;2.40;2.20;;;;;;;-0.82;100.00;95874.41;5061893;28;20227;-66
2021/05/08 03:30:07;;;;;;;1.80;1.70;;;;;;;-0.86;100.00;95869.47;5046406;28;20458;-63
2021/05/08 03:32:34;;;;;;;2.87;1.93;;;;;;;-1.01;100.00;95873.13;5066496;28;20462;-65
2021/05/08 03:35:04;;;;;;;1.33;1.33;;;;;;;-0.99;100.00;95873.88;5053491;28;20219;-64
2021/05/08 03:37:30;;;;;;;2.40;1.70;;;;;;;-0.96;100.00;95865.88;5061303;28;20544;-63
2021/05/08 03:39:58;;;;;;;2.00;1.80;;;;;;;-0.97;99.92;95863.41;5060133;28;20231;-63
2021/05/08 03:42:25;;;;;;;2.57;2.37;;;;;;;-1.01;100.00;95865.34;5061078;28;20620;-63
2021/05/08 03:44:52;;;;;;;2.77;2.67;;;;;;;-1.10;100.00;95868.59;5053629;28;20689;-64
2021/05/08 03:47:19;;;;;;;1.63;1.53;;;;;;;-1.05;100.00;95871.69;5057088;28;20276;-64
2021/05/08 03:49:47;;;;;;;2.07;1.97;;;;;;;-0.99;100.00;95867.88;5057769;28;20511;-64
2021/05/08 03:52:15;;;;;;;3.27;2.77;;;;;;;-0.99;100.00;95873.88;5054429;28;20711;-65
2021/05/08 03:54:42;;;;;;;3.13;2.93;;;;;;;-1.04;100.00;95872.53;5051390;28;20319;-64
2021/05/08 03:57:09;;;;;;;5.67;4.33;;;;;;;-1.02;100.00;95876.66;5062030;28;20476;-64
2021/05/08 03:59:36;;;;;;;3.47;3.17;;;;;;;-1.05;100.00;95882.06;5063658;28;20309;-64
2021/05/08 04:02:02;;;;;;;2.20;2.10;;;;;;;-1.05;100.00;95889.81;5061752;28;20288;-65
2021/05/08 04:04:29;;;;;;;9.30;3.10;;;;;;;-1.07;100.00;95886.53;5062111;28;20261;-64
2021/05/08 04:06:56;;;;;;;2.37;2.27;;;;;;;-1.07;100.00;95883.94;5065583;28;20220;-64
2021/05/08 04:09:24;;;;;;;3.10;2.90;;;;;;;-1.02;100.00;95886.19;5068241;28;20226;-64
2021/05/08 04:11:51;;;;;;;2.23;2.13;;;;;;;-1.00;100.00;95892.94;5063278;28;20297;-64
2021/05/08 04:14:18;;;;;;;2.70;2.53;;;;;;;-1.00;100.00;95894.69;5069446;28;20276;-64
2021/05/08 04:16:45;;;;;;;2.20;2.10;;;;;;;-1.00;100.00;95892.94;5080175;28;20244;-62
2021/05/08 04:19:12;;;;;;;3.10;2.80;;;;;;;-0.94;100.00;95892.47;5054858;28;20597;-65
2021/05/08 04:21:39;;;;;;;3.27;3.03;;;;;;;-0.86;100.00;95895.38;5062640;28;20473;-65
2021/05/08 04:24:07;;;;;;;2.87;2.67;;;;;;;-0.76;100.00;95884.34;5054837;28;20537;-63
2021/05/08 04:26:34;;;;;;;2.80;2.70;;;;;;;-0.68;99.90;95885.47;5054862;28;21022;-63
2021/05/08 04:29:02;;;;;;;2.90;2.30;;;;;;;-0.60;100.00;95892.69;5065037;28;20545;-63
2021/05/08 04:31:29;;;;;;;3.60;3.30;;;;;;;-0.58;100.00;95885.63;5064234;28;21007;-64
2021/05/08 04:33:56;;;;;;;3.10;2.90;;;;;;;-0.52;100.00;95890.38;5066476;28;20561;-63
2021/05/08 04:36:23;;;;;;;2.43;2.27;;;;;;;-0.49;99.81;95887.56;5059267;28;20226;-64
2021/05/08 04:38:49;;;;;;;3.37;3.00;;;;;;;-0.37;99.83;95884.06;5061805;28;20947;-64
2021/05/08 04:41:16;;;;;;;3.10;2.90;;;;;;;-0.16;100.00;95873.09;5063627;28;20237;-65
2021/05/08 04:43:44;;;;;;;3.07;2.87;;;;;;;-0.16;99.93;95867.91;5064490;28;20246;-64
2021/05/08 04:46:11;;;;;;;3.83;3.00;;;;;;;-0.17;99.81;95877.44;5051978;28;20346;-64
2021/05/08 04:48:38;;;;;;;2.87;2.67;;;;;;;-0.19;99.56;95874.13;5060924;28;20233;-64
2021/05/08 04:51:05;;;;;;;3.93;3.63;;;;;;;-0.07;99.71;95872.41;5055692;28;20259;-64
2021/05/08 04:53:33;;;;;;;7.07;3.40;;;;;;;0.03;99.39;95878.56;5054259;28;20238;-64
2021/05/08 04:56:00;;;;;;;3.63;3.33;;;;;;;0.13;99.36;95884.72;5046468;28;20303;-64
2021/05/08 04:58:27;;;;;;;4.93;3.00;;;;;;;0.22;99.28;95878.00;5055831;28;20229;-64
2021/05/08 05:00:55;;;;;;;3.17;2.97;;;;;;;0.32;99.13;95885.94;5057627;28;20228;-64
2021/05/08 05:03:22;;;;;;;2.43;2.23;;;;;;;0.43;98.44;95883.34;5055081;28;20233;-64
2021/05/08 05:05:48;;;;;;;3.37;3.17;;;;;;;0.51;97.98;95889.59;5055877;28;20228;-64
2021/05/08 05:08:19;;;;;;;4.17;3.53;;;;;;;0.60;97.88;95882.06;5046757;28;20327;-64
2021/05/08 05:10:49;;;;;;;4.50;3.37;;;;;;;0.72;97.82;95887.13;5046399;28;20226;-64
2021/05/08 05:13:16;;;;;;;2.77;2.60;;;;;;;0.83;96.84;95888.94;5057848;28;20283;-64
2021/05/08 05:15:43;;;;;;;3.73;3.43;;;;;;;0.81;97.43;95896.81;5056530;28;20286;-63
2021/05/08 05:18:11;;;;;;;3.47;3.27;;;;;;;0.90;96.58;95891.84;5065581;28;20222;-64
2021/05/08 05:20:39;;;;;;;4.43;4.23;;;;;;;1.01;97.19;95897.06;5060443;28;20612;-65
2021/05/08 05:23:06;;;;;;;3.30;3.00;;;;;;;1.08;96.28;95895.63;5054812;28;20244;-66
2021/05/08 05:25:33;;;;;;;3.27;3.07;;;;;;;1.08;96.46;95893.03;5054538;28;20298;-64
2021/05/08 05:28:00;;;;;;;3.73;3.43;;;;;;;1.13;97.16;95883.09;5044974;28;20229;-64
2021/05/08 05:30:28;;;;;;;2.83;2.63;;;;;;;1.22;97.44;95897.16;5062207;28;20539;-63
2021/05/08 05:32:55;;;;;;;3.60;3.30;;;;;;;1.31;97.91;95888.63;5061409;28;20346;-64
2021/05/08 05:35:23;;;;;;;2.33;2.23;;;;;;;1.41;97.51;95889.53;5064963;28;20748;-64
2021/05/08 05:37:50;;;;;;;3.90;3.50;;;;;;;1.54;97.23;95884.19;5062955;28;20382;-64
2021/05/08 05:40:17;;;;;;;4.87;3.60;;;;;;;1.65;96.79;95887.59;5056055;28;20248;-65
2021/05/08 05:42:44;;;;;;;2.73;2.63;;;;;;;1.71;97.17;95886.25;5061850;28;20672;-65
2021/05/08 05:45:11;;;;;;;3.40;3.20;;;;;;;1.86;96.88;95890.22;5054706;28;20254;-65
2021/05/08 05:47:38;;;;;;;2.63;2.50;;;;;;;1.96;96.36;95890.28;5060056;28;20518;-64
2021/05/08 05:50:06;;;;;;;2.90;2.70;;;;;;;2.08;96.23;95885.84;5060106;28;20297;-65
2021/05/08 05:52:34;;;;;;;2.93;2.73;;;;;;;2.15;95.22;95889.59;5063041;28;20237;-64
2021/05/08 05:55:00;;;;;;;10.23;3.70;;;;;;;2.20;95.64;95888.28;5053066;28;20655;-64
2021/05/08 05:57:27;;;;;;;3.80;3.37;;;;;;;2.26;96.04;95881.72;5045546;28;20303;-64
2021/05/08 05:59:55;;;;;;;3.53;3.33;;;;;;;2.42;96.16;95876.06;5055124;28;20303;-65
2021/05/08 06:02:22;;;;;;;4.10;3.67;;;;;;;2.54;96.56;95875.03;5060967;28;20230;-65
2021/05/08 06:04:49;;;;;;;4.00;3.70;;;;;;;2.69;95.83;95878.13;5055246;28;20226;-65
2021/05/08 06:07:16;;;;;;;4.60;4.20;;;;;;;2.84;95.27;95872.44;5075611;28;20628;-65
2021/05/08 06:09:43;;;;;;;6.47;3.60;;;;;;;3.00;95.25;95871.13;5051500;28;20226;-64
2021/05/08 06:12:15;;;;;;;3.13;2.93;;;;;;;3.17;94.92;95872.28;5047806;28;20348;-65
2021/05/08 06:14:42;;;;;;;3.03;2.83;;;;;;;3.28;94.87;95870.38;5055281;28;20301;-65
2021/05/08 06:17:09;;;;;;;4.53;3.40;;;;;;;3.47;95.50;95866.97;5063689;28;20558;-65
2021/05/08 06:19:36;;;;;;;3.10;2.90;;;;;;;3.69;95.09;95863.31;5059823;28;20227;-65
2021/05/08 06:22:03;;;;;;;3.20;3.00;;;;;;;3.91;94.99;95854.38;5062143;28;20222;-65
2021/05/08 06:24:30;;;;;;;3.40;3.20;;;;;;;4.14;94.67;95854.91;5074020;28;20326;-65
2021/05/08 06:26:57;;;;;;;3.50;3.30;;;;;;;4.32;94.44;95850.63;5055509;28;20300;-65
2021/05/08 06:29:24;;;;;;;4.17;3.13;;;;;;;4.47;93.56;95854.41;5057452;28;20223;-65
2021/05/08 06:31:51;;;;;;;3.10;2.90;;;;;;;4.66;93.18;95856.16;5063094;28;20654;-65
2021/05/08 06:34:18;;;;;;;4.97;3.60;;;;;;;4.82;93.23;95850.31;5066343;28;20707;-65
2021/05/08 06:36:45;;;;;;;2.90;2.70;;;;;;;5.04;93.29;95854.38;5062753;28;20288;-65
2021/05/08 06:39:12;;;;;;;2.30;2.20;;;;;;;5.25;93.29;95859.34;5054803;28;20281;-65
2021/05/08 06:41:39;;;;;;;3.13;2.93;;;;;;;5.40;93.16;95858.72;5050646;28;20654;-65
2021/05/08 06:44:07;;;;;;;2.83;2.67;;;;;;;5.53;93.04;95858.38;5055750;28;20226;-64
2021/05/08 06:46:34;;;;;;;5.03;3.03;;;;;;;5.77;92.70;95849.13;5062042;28;20214;-65
2021/05/08 06:49:01;;;;;;;3.30;3.10;;;;;;;6.00;92.10;95850.31;5059215;28;20245;-65
2021/05/08 06:51:29;;;;;;;2.80;2.60;;;;;;;6.23;88.87;95841.03;5029502;28;20492;-65
2021/05/08 06:53:56;;;;;;;3.27;2.90;;;;;;;6.50;87.09;95850.56;5014225;28;20708;-65
2021/05/08 06:56:25;;;;;;;2.60;2.43;;;;;;;6.73;84.73;95847.41;5018888;28;20248;-65
2021/05/08 06:58:53;;;;;;;2.20;2.10;;;;;;;6.94;83.27;95845.19;5010114;28;20311;-65
2021/05/08 07:01:21;;;;;;;2.37;2.17;;;;;;;7.11;81.15;95840.84;5012414;28;20530;-65
2021/05/08 07:03:47;;;;;;;1.70;1.60;;;;;;;7.27;79.90;95842.72;5042906;28;20235;-66
2021/05/08 07:06:14;;;;;;;4.30;2.70;;;;;;;7.44;79.80;95840.97;5015634;28;20224;-65
2021/05/08 07:08:41;;;;;;;2.20;2.00;;;;;;;7.61;78.80;95838.25;5009685;28;20351;-65
2021/05/08 07:11:08;;;;;;;5.87;2.50;;;;;;;7.80;78.45;95842.38;5020489;28;20221;-65
2021/05/08 07:13:35;;;;;;;2.30;2.10;;;;;;;7.97;78.41;95840.59;5023445;28;20749;-64
2021/05/08 07:16:02;;;;;;;2.60;2.40;;;;;;;8.12;76.96;95838.13;5005670;28;20221;-66
2021/05/08 07:18:29;;;;;;;9.40;8.57;;;;;;;8.30;76.99;95841.41;5016123;28;20231;-65
2021/05/08 07:20:56;;;;;;;3.00;2.77;;;;;;;8.45;75.70;95841.59;5019719;28;20243;-66
2021/05/08 07:23:24;;;;;;;7.53;4.53;;;;;;;8.59;75.71;95838.28;5014927;28;20226;-65
2021/05/08 07:25:51;;;;;;;4.20;3.90;;;;;;;8.73;76.26;95834.97;5016016;28;20641;-65
2021/05/08 07:28:20;;;;;;;2.50;2.30;;;;;;;8.91;75.98;95833.94;5020399;28;20225;-66
2021/05/08 07:30:48;;;;;;;2.00;1.90;;;;;;;8.97;72.27;95835.91;5035665;28;20312;-65
2021/05/08 07:33:17;;;;;;;1.87;1.77;;;;;;;9.05;72.25;95835.84;5004383;28;20309;-65
2021/05/08 07:35:46;;;;;;;2.57;2.37;;;;;;;9.21;72.88;95830.53;5017232;28;20232;-64
2021/05/08 07:38:14;;;;;;;2.33;2.20;;;;;;;9.37;73.04;95827.81;5014927;28;20215;-65
2021/05/08 07:40:41;;;;;;;2.23;2.03;;;;;;;9.59;71.40;95825.41;5023996;28;20794;-66
2021/05/08 07:43:09;;;;;;;1.67;1.50;;;;;;;9.78;71.08;95822.31;5013662;28;20281;-65
2021/05/08 07:45:38;;;;;;;1.73;1.63;;;;;;;9.96;69.38;95822.84;5018583;28;20234;-65
2021/05/08 07:48:05;;;;;;;1.70;1.60;;;;;;;10.15;69.31;95820.72;5023509;28;20684;-66
2021/05/08 07:50:33;;;;;;;1.10;1.00;;;;;;;10.31;69.50;95812.72;5022027;28;20302;-65
2021/05/08 07:53:00;;;;;;;4.37;2.10;;;;;;;10.60;69.54;95819.06;5022428;28;20309;-66
2021/05/08 07:55:27;;;;;;;2.00;1.70;;;;;;;10.87;67.42;95820.25;5015346;28;20224;-66
2021/05/08 07:57:54;;;;;;;2.10;2.00;;;;;;;11.04;67.76;95811.97;5021296;28;20702;-66
2021/05/08 08:00:22;;;;;;;2.60;1.23;;;;;;;11.27;66.84;95813.72;5021316;28;20302;-64
2021/05/08 08:02:49;;;;;;;1.97;1.87;;;;;;;11.56;67.12;95816.28;5017921;28;20231;-65
2021/05/08 08:05:17;;;;;;;1.33;1.30;;;;;;;11.83;65.99;95806.84;5017166;28;20221;-66
2021/05/08 08:07:44;;;;;;;1.60;1.50;;;;;;;12.03;63.82;95807.06;5023718;28;20240;-66
2021/05/08 08:10:13;;;;;;;1.47;1.33;;;;;;;12.12;60.88;95808.56;5019179;28;20765;-65
2021/05/08 08:12:41;;;;;;;1.43;1.00;;;;;;;12.32;61.99;95795.50;5014708;28;20233;-65
2021/05/08 08:15:10;;;;;;;2.50;1.10;;;;;;;12.49;60.45;95798.69;5020722;28;20249;-66
2021/05/08 08:17:37;;;;;;;2.10;0.90;;;;;;;12.77;59.52;95796.84;5009852;28;20248;-66
2021/05/08 08:20:08;;;;;;;1.10;1.10;;;;;;;12.90;58.41;95793.50;5013107;28;20253;-66
2021/05/08 08:22:35;;;;;;;1.03;0.93;;;;;;;13.04;57.76;95794.38;5023856;28;20255;-66
2021/05/08 08:25:03;;;;;;;1.07;0.97;;;;;;;13.36;58.90;95796.41;5015644;28;20293;-66
2021/05/08 08:27:31;;;;;;;0.73;0.73;;;;;;;13.62;56.83;95798.34;5003105;28;20323;-66
2021/05/08 08:29:58;;;;;;;0.80;0.80;;;;;;;13.78;55.09;95799.78;5009938;28;20232;-66
2021/05/08 08:32:25;;;;;;;0.70;0.70;;;;;;;13.72;53.85;95797.97;4999237;28;20252;-66
2021/05/08 08:34:53;;;;;;;0.63;0.63;;;;;;;13.84;51.04;95801.66;5000195;28;20225;-65
2021/05/08 08:37:20;;;;;;;0.83;0.83;;;;;;;13.95;53.96;95793.09;4998925;28;20301;-66
2021/05/08 08:39:48;;;;;;;1.07;1.03;;;;;;;14.22;54.09;95804.56;5003493;28;20608;-65
2021/05/08 08:42:15;;;;;;;1.00;1.00;;;;;;;14.40;53.05;95795.19;5002190;28;20231;-65
2021/05/08 08:44:43;;;;;;;0.90;0.90;;;;;;;14.42;52.39;95801.91;4993417;28;20220;-66
2021/05/08 08:50:00;;;;;;;1.47;0.90;;;;;;;14.58;52.20;95798.06;5018022;28;20592;-66
2021/05/08 08:52:28;;;;;;;1.27;1.10;;;;;;;14.81;51.15;95794.97;4997281;28;20964;-66
2021/05/08 08:54:56;;;;;;;1.30;1.30;;;;;;;15.04;51.06;95792.69;5000144;28;20304;-66
2021/05/08 08:57:27;;;;;;;1.03;0.97;;;;;;;15.32;49.68;95796.91;5008722;28;20639;-66
2021/05/08 08:59:55;;;;;;;1.00;0.90;;;;;;;15.68;50.01;95795.56;5016890;28;20231;-66
2021/05/08 09:02:27;;;;;;;0.93;0.90;;;;;;;15.91;49.92;95793.22;5021562;28;20255;-66
2021/05/08 09:05:01;;;;;;;0.70;0.53;;;;;;;16.20;50.50;95787.28;5017527;28;20658;-66
2021/05/08 09:07:30;;;;;;;1.07;1.07;;;;;;;16.53;47.57;95785.38;5020694;28;20277;-66
2021/05/08 09:09:57;;;;;;;0.50;0.50;;;;;;;16.63;48.34;95785.69;5022447;28;20228;-66
2021/05/08 09:12:27;;;;;;;1.33;1.27;;;;;;;16.72;47.22;95779.09;5022337;28;20242;-67
2021/05/08 09:14:56;;;;;;;0.60;0.60;;;;;;;16.78;46.02;95781.69;5026523;28;20234;-66
2021/05/08 09:17:25;;;;;;;1.60;0.57;;;;;;;16.91;46.36;95777.28;5018498;28;20434;-66
2021/05/08 09:19:58;;;;;;;1.00;0.73;;;;;;;17.13;46.95;95773.16;5015196;28;20219;-66
2021/05/08 09:22:31;;;;;;;1.57;0.77;;;;;;;17.30;47.49;95768.88;5025947;28;20223;-66
2021/05/08 09:25:03;;;;;;;1.17;0.60;;;;;;;17.64;45.83;95764.72;5006913;28;20396;-66
2021/05/08 09:27:38;;;;;;;0.73;0.73;;;;;;;18.13;46.99;95764.72;5020011;28;20231;-67
2021/05/08 09:30:13;;;;;;;0.67;0.50;;;;;;;18.27;44.28;95768.81;5031053;28;20250;-66
2021/05/08 09:32:42;;;;;;;0.97;0.87;;;;;;;18.37;43.61;95766.38;5006255;28;20250;-66
2021/05/08 09:35:14;;;;;;;1.30;0.60;;;;;;;18.40;43.54;95765.94;5010033;28;20227;-66
2021/05/08 09:37:41;;;;;;;2.07;1.93;;;;;;;17.61;44.01;95772.38;5018286;28;20270;-66
2021/05/08 09:40:16;;;;;;;0.63;0.63;;;;;;;18.32;44.11;95768.94;5025012;28;20298;-66
2021/05/08 09:42:44;;;;;;;0.93;0.63;;;;;;;17.73;41.57;95762.59;5009857;28;20231;-66
2021/05/08 09:45:13;;;;;;;0.70;0.70;;;;;;;17.06;41.21;95777.75;5018861;28;20653;-66
2021/05/08 09:47:42;;;;;;;0.90;0.80;;;;;;;17.00;43.15;95773.28;5012639;28;20601;-67
2021/05/08 09:50:10;;;;;;;1.03;0.83;;;;;;;17.44;43.54;95766.03;5011995;28;20235;-67
2021/05/08 09:52:44;;;;;;;0.90;0.90;;;;;;;17.30;42.15;95760.88;5022195;28;20239;-66
2021/05/08 09:55:12;;;;;;;2.03;0.70;;;;;;;18.13;47.24;95765.53;5012851;28;20604;-67
2021/05/08 09:57:38;;;;;;;0.90;0.90;;;;;;;18.89;44.38;95758.56;5005851;28;20311;-67
2021/05/08 10:00:31;;;;;;;0.60;0.60;;;;;;;19.35;42.65;95756.06;5010048;28;20215;-67
2021/05/08 10:03:05;;;;;;;2.27;0.80;;;;;;;19.52;41.69;95744.38;5023457;28;20653;-67
2021/05/08 10:05:33;;;;;;;0.70;0.60;;;;;;;18.96;42.47;95753.91;5006551;28;20224;-66
2021/05/08 10:08:00;;;;;;;0.50;0.50;;;;;;;18.65;41.72;95748.91;5018210;28;20304;-67
2021/05/08 10:10:27;;;;;;;0.60;0.60;;;;;;;18.72;42.89;95741.59;5020339;28;20319;-67
2021/05/08 10:12:55;;;;;;;0.53;0.53;;;;;;;18.64;40.98;95739.22;5006436;28;20244;-67
2021/05/08 10:15:23;;;;;;;2.03;0.93;;;;;;;18.08;43.93;95737.88;5019134;28;20230;-66
2021/05/08 10:17:51;;;;;;;0.30;0.30;;;;;;;18.20;44.91;95738.72;5017711;28;20233;-66
2021/05/08 10:20:20;;;;;;;1.00;1.00;;;;;;;18.12;44.44;95747.06;5016769;28;20308;-66
2021/05/08 10:22:50;;;;;;;0.63;0.50;;;;;;;17.69;44.00;95732.03;5023535;28;20215;-66
2021/05/08 10:25:18;;;;;;;0.67;0.67;;;;;;;18.18;44.26;95728.25;5010241;28;20263;-66
2021/05/08 10:27:45;;;;;;;0.73;0.67;;;;;;;17.82;42.57;95731.88;5002888;28;20321;-66
2021/05/08 10:30:14;;;;;;;0.77;0.77;;;;;;;18.43;43.18;95730.72;5023833;28;20314;-66
2021/05/08 10:32:44;;;;;;;0.70;0.70;;;;;;;18.27;44.00;95728.72;5024519;28;20772;-67
2021/05/08 10:35:14;;;;;;;1.70;1.30;;;;;;;18.01;43.34;95734.47;5055359;28;20295;-66
2021/05/08 10:38:27;;;;;;;1.10;1.00;;;;;;;17.72;44.18;95723.59;5025518;28;20305;-67
2021/05/08 10:40:57;;;;;;;0.87;0.87;;;;;;;18.32;43.76;95720.84;5014269;28;20326;-66
2021/05/08 10:43:40;;;;;;;1.23;1.17;;;;;;;18.27;41.00;95712.69;5012033;28;20381;-66
2021/05/08 10:46:07;;;;;;;1.27;0.60;;;;;;;18.59;40.41;95699.84;5020185;28;20338;-66
2021/05/08 10:48:34;;;;;;;0.60;0.60;;;;;;;19.17;40.54;95690.13;5019734;28;20234;-66
2021/05/08 10:51:03;;;;;;;1.13;1.13;;;;;;;19.35;42.38;95689.97;5020191;28;20590;-66
2021/05/08 10:53:41;;;;;;;0.70;0.70;;;;;;;19.52;41.15;95687.34;5020630;28;20282;-67
2021/05/08 10:56:23;;;;;;;1.40;1.30;;;;;;;19.51;39.70;95685.72;5014531;28;20301;-66
2021/05/08 10:59:04;;;;;;;1.57;1.47;;;;;;;19.48;40.44;95686.22;5020438;28;20552;-67
2021/05/08 11:01:42;;;;;;;1.70;1.30;;;;;;;19.52;40.50;95688.16;5018189;28;20258;-67
2021/05/08 11:04:09;;;;;;;1.13;0.90;;;;;;;19.59;40.14;95688.06;5017493;28;20329;-67
2021/05/08 11:06:42;;;;;;;1.37;1.03;;;;;;;19.77;39.74;95687.03;5019546;28;20227;-66
2021/05/08 11:09:30;;;;;;;1.20;0.47;;;;;;;20.04;40.34;95680.03;5016158;28;22465;-66
2021/05/08 11:11:57;;;;;;;1.60;1.20;;;;;;;20.20;38.96;95678.38;5003639;28;20548;-67
2021/05/08 11:14:52;;;;;;;1.17;1.07;;;;;;;20.37;39.38;95679.19;5016447;28;20314;-66
2021/05/08 11:17:20;;;;;;;1.37;1.30;;;;;;;20.48;39.20;95679.38;5009594;28;20313;-67
2021/05/08 11:19:48;;;;;;;0.40;0.40;;;;;;;20.69;41.40;95670.59;5012245;28;20297;-67
2021/05/08 11:22:31;;;;;;;1.13;1.03;;;;;;;20.97;38.17;95666.94;5010752;28;20232;-66
2021/05/08 11:24:58;;;;;;;1.33;1.33;;;;;;;21.21;39.62;95672.84;5011795;28;20598;-67
2021/05/08 11:27:28;;;;;;;0.80;0.80;;;;;;;20.11;38.53;95667.25;5014471;28;20226;-68
2021/05/08 11:30:10;;;;;;;0.60;0.60;;;;;;;20.68;37.40;95660.94;5012787;28;20231;-67
2021/05/08 11:32:47;;;;;;;0.40;0.40;;;;;;;20.67;38.58;95662.78;5015023;28;20639;-67
2021/05/08 11:35:25;;;;;;;0.90;0.70;;;;;;;20.36;41.59;95660.69;5013515;28;20230;-66
2021/05/08 11:37:53;;;;;;;1.33;1.23;;;;;;;19.44;41.96;95653.75;5011284;28;20751;-67
2021/05/08 11:40:31;;;;;;;0.77;0.73;;;;;;;19.71;41.94;95650.50;5015657;28;20246;-67
2021/05/08 11:42:58;;;;;;;0.50;0.40;;;;;;;20.12;41.00;95647.47;5009020;28;20760;-66
2021/05/08 11:45:25;;;;;;;3.23;2.13;;;;;;;19.53;39.74;95641.59;5019285;28;20269;-67